sensor_id;sensor_type;location;lat;lon;timestamp;P1;durP1;ratioP1;P2;durP2;ratioP2
69822;SDS011;57119;52.516;13.508;2023-02-12T00:01:21;12.85;;;4.22;;
69822;SDS011;57119;52.516;13.508;2023-02-12T00:03:47;14.48;;;4.40;;
69822;SDS011;57119;52.516;13.508;2023-02-12T00:06:13;16.17;;;5.33;;
69822;SDS011;57119;52.516;13.508;2023-02-12T00:08:38;21.10;;;5.17;;
69822;SDS011;57119;52.516;13.508;2023-02-12T00:11:08;19.45;;;5.90;;
69822;SDS011;57119;52.516;13.508;2023-02-12T00:13:35;16.55;;;4.40;;
69822;SDS011;57119;52.516;13.508;2023-02-12T00:16:05;13.40;;;4.07;;
69822;SDS011;57119;52.516;13.508;2023-02-12T00:18:31;23.02;;;4.97;;
69822;SDS011;57119;52.516;13.508;2023-02-12T00:20:58;21.77;;;4.83;;
69822;SDS011;57119;52.516;13.508;2023-02-12T00:23:24;16.80;;;4.60;;
69822;SDS011;57119;52.516;13.508;2023-02-12T00:25:49;17.27;;;4.73;;
69822;SDS011;57119;52.516;13.508;2023-02-12T00:28:15;22.83;;;5.50;;
69822;SDS011;57119;52.516;13.508;2023-02-12T00:30:40;19.60;;;5.67;;
69822;SDS011;57119;52.516;13.508;2023-02-12T00:33:06;21.90;;;5.35;;
69822;SDS011;57119;52.516;13.508;2023-02-12T00:35:31;15.00;;;4.47;;
69822;SDS011;57119;52.516;13.508;2023-02-12T00:37:56;17.93;;;4.50;;
69822;SDS011;57119;52.516;13.508;2023-02-12T00:40:22;16.30;;;4.70;;
69822;SDS011;57119;52.516;13.508;2023-02-12T00:42:47;21.95;;;5.13;;
69822;SDS011;57119;52.516;13.508;2023-02-12T00:45:13;15.77;;;4.37;;
69822;SDS011;57119;52.516;13.508;2023-02-12T00:47:38;21.63;;;5.20;;
69822;SDS011;57119;52.516;13.508;2023-02-12T00:50:04;22.90;;;5.60;;
69822;SDS011;57119;52.516;13.508;2023-02-12T00:52:30;18.85;;;4.68;;
69822;SDS011;57119;52.516;13.508;2023-02-12T00:54:55;16.17;;;4.87;;
69822;SDS011;57119;52.516;13.508;2023-02-12T00:57:20;15.87;;;4.13;;
69822;SDS011;57119;52.516;13.508;2023-02-12T00:59:46;20.63;;;4.57;;
69822;SDS011;57119;52.516;13.508;2023-02-12T01:02:11;15.90;;;5.03;;
69822;SDS011;57119;52.516;13.508;2023-02-12T01:04:37;14.43;;;4.17;;
69822;SDS011;57119;52.516;13.508;2023-02-12T01:07:02;18.08;;;4.72;;
69822;SDS011;57119;52.516;13.508;2023-02-12T01:09:28;16.07;;;4.00;;
69822;SDS011;57119;52.516;13.508;2023-02-12T01:11:53;14.30;;;3.80;;
69822;SDS011;57119;52.516;13.508;2023-02-12T01:14:18;13.77;;;4.70;;
69822;SDS011;57119;52.516;13.508;2023-02-12T01:16:44;14.47;;;4.10;;
69822;SDS011;57119;52.516;13.508;2023-02-12T01:19:10;16.10;;;3.92;;
69822;SDS011;57119;52.516;13.508;2023-02-12T01:21:36;15.47;;;4.00;;
69822;SDS011;57119;52.516;13.508;2023-02-12T01:24:01;12.25;;;4.28;;
69822;SDS011;57119;52.516;13.508;2023-02-12T01:26:28;14.87;;;3.93;;
69822;SDS011;57119;52.516;13.508;2023-02-12T01:28:56;19.50;;;4.45;;
69822;SDS011;57119;52.516;13.508;2023-02-12T01:31:26;16.83;;;4.70;;
69822;SDS011;57119;52.516;13.508;2023-02-12T01:33:54;17.35;;;4.70;;
69822;SDS011;57119;52.516;13.508;2023-02-12T01:36:21;16.73;;;4.83;;
69822;SDS011;57119;52.516;13.508;2023-02-12T01:38:47;15.95;;;4.28;;
69822;SDS011;57119;52.516;13.508;2023-02-12T01:41:13;18.60;;;4.73;;
69822;SDS011;57119;52.516;13.508;2023-02-12T01:43:41;19.35;;;4.43;;
69822;SDS011;57119;52.516;13.508;2023-02-12T01:46:07;18.38;;;4.25;;
69822;SDS011;57119;52.516;13.508;2023-02-12T01:48:36;13.07;;;3.83;;
69822;SDS011;57119;52.516;13.508;2023-02-12T01:51:06;15.90;;;3.77;;
69822;SDS011;57119;52.516;13.508;2023-02-12T01:53:36;17.17;;;4.60;;
69822;SDS011;57119;52.516;13.508;2023-02-12T01:56:05;16.90;;;3.47;;
69822;SDS011;57119;52.516;13.508;2023-02-12T01:58:34;16.85;;;3.65;;
69822;SDS011;57119;52.516;13.508;2023-02-12T02:01:04;15.07;;;4.32;;
69822;SDS011;57119;52.516;13.508;2023-02-12T02:03:32;14.53;;;4.03;;
69822;SDS011;57119;52.516;13.508;2023-02-12T02:06:01;14.80;;;4.22;;
69822;SDS011;57119;52.516;13.508;2023-02-12T02:08:32;16.60;;;4.10;;
69822;SDS011;57119;52.516;13.508;2023-02-12T02:10:58;16.60;;;4.13;;
69822;SDS011;57119;52.516;13.508;2023-02-12T02:13:23;18.13;;;3.87;;
69822;SDS011;57119;52.516;13.508;2023-02-12T02:16:20;18.57;;;3.73;;
69822;SDS011;57119;52.516;13.508;2023-02-12T02:19:30;15.48;;;4.13;;
69822;SDS011;57119;52.516;13.508;2023-02-12T02:24:53;14.13;;;4.60;;
69822;SDS011;57119;52.516;13.508;2023-02-12T02:30:23;15.40;;;4.40;;
69822;SDS011;57119;52.516;13.508;2023-02-12T02:35:44;15.60;;;3.88;;
69822;SDS011;57119;52.516;13.508;2023-02-12T02:38:19;17.13;;;3.78;;
69822;SDS011;57119;52.516;13.508;2023-02-12T02:41:01;17.08;;;3.88;;
69822;SDS011;57119;52.516;13.508;2023-02-12T02:43:37;16.30;;;3.60;;
69822;SDS011;57119;52.516;13.508;2023-02-12T02:46:42;17.63;;;4.25;;
69822;SDS011;57119;52.516;13.508;2023-02-12T02:49:22;15.05;;;3.50;;
69822;SDS011;57119;52.516;13.508;2023-02-12T02:51:54;19.80;;;4.38;;
69822;SDS011;57119;52.516;13.508;2023-02-12T02:54:28;17.58;;;3.70;;
69822;SDS011;57119;52.516;13.508;2023-02-12T02:57:03;18.37;;;3.53;;
69822;SDS011;57119;52.516;13.508;2023-02-12T02:59:34;14.35;;;4.10;;
69822;SDS011;57119;52.516;13.508;2023-02-12T03:04:54;18.23;;;4.28;;
69822;SDS011;57119;52.516;13.508;2023-02-12T03:07:25;13.98;;;3.25;;
69822;SDS011;57119;52.516;13.508;2023-02-12T03:09:57;14.73;;;3.43;;
69822;SDS011;57119;52.516;13.508;2023-02-12T03:12:28;17.80;;;4.18;;
69822;SDS011;57119;52.516;13.508;2023-02-12T03:15:10;17.65;;;4.30;;
69822;SDS011;57119;52.516;13.508;2023-02-12T03:17:43;13.52;;;3.67;;
69822;SDS011;57119;52.516;13.508;2023-02-12T03:20:17;17.27;;;3.40;;
69822;SDS011;57119;52.516;13.508;2023-02-12T03:22:53;13.00;;;4.17;;
69822;SDS011;57119;52.516;13.508;2023-02-12T03:25:24;19.25;;;4.43;;
69822;SDS011;57119;52.516;13.508;2023-02-12T03:30:27;21.00;;;4.53;;
69822;SDS011;57119;52.516;13.508;2023-02-12T03:36:00;15.97;;;3.30;;
69822;SDS011;57119;52.516;13.508;2023-02-12T03:38:45;13.63;;;3.70;;
69822;SDS011;57119;52.516;13.508;2023-02-12T03:41:20;19.25;;;3.90;;
69822;SDS011;57119;52.516;13.508;2023-02-12T03:43:51;14.38;;;3.58;;
69822;SDS011;57119;52.516;13.508;2023-02-12T03:49:26;19.93;;;4.57;;
69822;SDS011;57119;52.516;13.508;2023-02-12T03:51:55;18.38;;;4.20;;
69822;SDS011;57119;52.516;13.508;2023-02-12T03:54:22;20.33;;;3.88;;
69822;SDS011;57119;52.516;13.508;2023-02-12T03:56:53;30.92;;;4.68;;
69822;SDS011;57119;52.516;13.508;2023-02-12T03:59:22;16.90;;;3.90;;
69822;SDS011;57119;52.516;13.508;2023-02-12T04:01:50;20.73;;;5.22;;
69822;SDS011;57119;52.516;13.508;2023-02-12T04:04:17;22.75;;;3.70;;
69822;SDS011;57119;52.516;13.508;2023-02-12T04:06:43;19.27;;;4.13;;
69822;SDS011;57119;52.516;13.508;2023-02-12T04:09:11;14.90;;;3.42;;
69822;SDS011;57119;52.516;13.508;2023-02-12T04:23:36;19.65;;;4.20;;
69822;SDS011;57119;52.516;13.508;2023-02-12T04:31:38;24.60;;;4.53;;
69822;SDS011;57119;52.516;13.508;2023-02-12T04:37:25;18.77;;;3.58;;
69822;SDS011;57119;52.516;13.508;2023-02-12T04:39:56;20.10;;;3.87;;
69822;SDS011;57119;52.516;13.508;2023-02-12T04:42:24;17.15;;;4.18;;
69822;SDS011;57119;52.516;13.508;2023-02-12T04:44:49;16.70;;;4.13;;
69822;SDS011;57119;52.516;13.508;2023-02-12T04:47:15;23.90;;;4.20;;
69822;SDS011;57119;52.516;13.508;2023-02-12T04:49:41;20.38;;;4.25;;
69822;SDS011;57119;52.516;13.508;2023-02-12T04:52:07;17.60;;;4.03;;
69822;SDS011;57119;52.516;13.508;2023-02-12T04:54:33;16.33;;;4.10;;
69822;SDS011;57119;52.516;13.508;2023-02-12T04:56:59;22.50;;;4.03;;
69822;SDS011;57119;52.516;13.508;2023-02-12T04:59:24;17.90;;;3.97;;
69822;SDS011;57119;52.516;13.508;2023-02-12T05:01:49;20.20;;;3.67;;
69822;SDS011;57119;52.516;13.508;2023-02-12T05:04:16;22.98;;;4.45;;
69822;SDS011;57119;52.516;13.508;2023-02-12T05:06:43;19.55;;;4.20;;
69822;SDS011;57119;52.516;13.508;2023-02-12T05:09:12;18.27;;;4.60;;
69822;SDS011;57119;52.516;13.508;2023-02-12T05:11:40;22.90;;;4.28;;
69822;SDS011;57119;52.516;13.508;2023-02-12T05:14:05;20.17;;;4.70;;
69822;SDS011;57119;52.516;13.508;2023-02-12T05:16:31;19.23;;;4.90;;
69822;SDS011;57119;52.516;13.508;2023-02-12T05:18:57;19.38;;;4.13;;
69822;SDS011;57119;52.516;13.508;2023-02-12T05:21:22;18.20;;;4.93;;
69822;SDS011;57119;52.516;13.508;2023-02-12T05:23:48;21.27;;;5.27;;
69822;SDS011;57119;52.516;13.508;2023-02-12T05:26:15;17.87;;;4.67;;
69822;SDS011;57119;52.516;13.508;2023-02-12T05:28:42;25.63;;;4.78;;
69822;SDS011;57119;52.516;13.508;2023-02-12T05:31:13;22.70;;;4.93;;
69822;SDS011;57119;52.516;13.508;2023-02-12T05:33:41;29.23;;;5.43;;
69822;SDS011;57119;52.516;13.508;2023-02-12T05:36:09;20.20;;;4.57;;
69822;SDS011;57119;52.516;13.508;2023-02-12T05:38:36;27.02;;;4.55;;
69822;SDS011;57119;52.516;13.508;2023-02-12T05:41:09;22.93;;;4.47;;
69822;SDS011;57119;52.516;13.508;2023-02-12T05:43:36;20.10;;;4.05;;
69822;SDS011;57119;52.516;13.508;2023-02-12T05:46:02;20.43;;;3.80;;
69822;SDS011;57119;52.516;13.508;2023-02-12T05:48:30;17.27;;;3.13;;
69822;SDS011;57119;52.516;13.508;2023-02-12T05:51:04;23.33;;;3.95;;
69822;SDS011;57119;52.516;13.508;2023-02-12T05:53:31;21.75;;;4.35;;
69822;SDS011;57119;52.516;13.508;2023-02-12T05:56:13;20.73;;;3.87;;
69822;SDS011;57119;52.516;13.508;2023-02-12T05:58:41;17.05;;;3.45;;
69822;SDS011;57119;52.516;13.508;2023-02-12T06:01:11;14.52;;;3.72;;
69822;SDS011;57119;52.516;13.508;2023-02-12T06:03:42;34.47;;;5.25;;
69822;SDS011;57119;52.516;13.508;2023-02-12T06:06:07;21.57;;;4.97;;
69822;SDS011;57119;52.516;13.508;2023-02-12T06:08:33;19.23;;;3.92;;
69822;SDS011;57119;52.516;13.508;2023-02-12T06:11:00;16.63;;;4.43;;
69822;SDS011;57119;52.516;13.508;2023-02-12T06:13:26;20.33;;;4.07;;
69822;SDS011;57119;52.516;13.508;2023-02-12T06:15:52;19.77;;;4.70;;
69822;SDS011;57119;52.516;13.508;2023-02-12T06:18:17;21.70;;;4.30;;
69822;SDS011;57119;52.516;13.508;2023-02-12T06:20:43;14.47;;;3.10;;
69822;SDS011;57119;52.516;13.508;2023-02-12T06:23:08;19.00;;;4.90;;
69822;SDS011;57119;52.516;13.508;2023-02-12T06:25:33;20.63;;;4.57;;
69822;SDS011;57119;52.516;13.508;2023-02-12T06:27:59;17.50;;;3.57;;
69822;SDS011;57119;52.516;13.508;2023-02-12T06:30:24;17.47;;;3.97;;
69822;SDS011;57119;52.516;13.508;2023-02-12T06:32:49;18.80;;;3.60;;
69822;SDS011;57119;52.516;13.508;2023-02-12T06:35:15;20.73;;;3.42;;
69822;SDS011;57119;52.516;13.508;2023-02-12T06:37:40;18.10;;;3.50;;
69822;SDS011;57119;52.516;13.508;2023-02-12T06:40:06;15.43;;;3.30;;
69822;SDS011;57119;52.516;13.508;2023-02-12T06:42:31;18.25;;;4.05;;
69822;SDS011;57119;52.516;13.508;2023-02-12T06:44:57;22.30;;;3.40;;
69822;SDS011;57119;52.516;13.508;2023-02-12T06:47:22;12.63;;;3.07;;
69822;SDS011;57119;52.516;13.508;2023-02-12T06:49:48;16.57;;;4.47;;
69822;SDS011;57119;52.516;13.508;2023-02-12T06:52:13;14.90;;;4.30;;
69822;SDS011;57119;52.516;13.508;2023-02-12T06:54:38;14.13;;;3.23;;
69822;SDS011;57119;52.516;13.508;2023-02-12T06:57:04;22.83;;;6.10;;
69822;SDS011;57119;52.516;13.508;2023-02-12T06:59:29;23.83;;;4.30;;
69822;SDS011;57119;52.516;13.508;2023-02-12T07:01:55;27.87;;;3.83;;
69822;SDS011;57119;52.516;13.508;2023-02-12T07:04:20;17.83;;;3.42;;
69822;SDS011;57119;52.516;13.508;2023-02-12T07:06:45;14.03;;;3.73;;
69822;SDS011;57119;52.516;13.508;2023-02-12T07:09:11;18.90;;;4.50;;
69822;SDS011;57119;52.516;13.508;2023-02-12T07:11:36;20.03;;;3.60;;
69822;SDS011;57119;52.516;13.508;2023-02-12T07:14:02;16.40;;;3.83;;
69822;SDS011;57119;52.516;13.508;2023-02-12T07:16:27;16.92;;;3.90;;
69822;SDS011;57119;52.516;13.508;2023-02-12T07:18:53;14.63;;;4.10;;
69822;SDS011;57119;52.516;13.508;2023-02-12T07:21:19;16.65;;;3.90;;
69822;SDS011;57119;52.516;13.508;2023-02-12T07:23:45;18.83;;;3.20;;
69822;SDS011;57119;52.516;13.508;2023-02-12T07:26:12;15.95;;;3.30;;
69822;SDS011;57119;52.516;13.508;2023-02-12T07:28:38;15.90;;;3.25;;
69822;SDS011;57119;52.516;13.508;2023-02-12T07:33:38;14.47;;;3.10;;
69822;SDS011;57119;52.516;13.508;2023-02-12T07:36:05;19.27;;;3.13;;
69822;SDS011;57119;52.516;13.508;2023-02-12T07:38:33;15.20;;;2.92;;
69822;SDS011;57119;52.516;13.508;2023-02-12T07:41:22;13.88;;;3.38;;
69822;SDS011;57119;52.516;13.508;2023-02-12T07:43:59;15.13;;;2.70;;
69822;SDS011;57119;52.516;13.508;2023-02-12T07:46:49;16.47;;;3.90;;
69822;SDS011;57119;52.516;13.508;2023-02-12T07:49:16;20.15;;;7.45;;
69822;SDS011;57119;52.516;13.508;2023-02-12T07:51:43;14.73;;;4.40;;
69822;SDS011;57119;52.516;13.508;2023-02-12T07:54:09;11.83;;;3.23;;
69822;SDS011;57119;52.516;13.508;2023-02-12T07:56:35;17.38;;;2.72;;
69822;SDS011;57119;52.516;13.508;2023-02-12T07:59:04;16.73;;;3.65;;
69822;SDS011;57119;52.516;13.508;2023-02-12T08:01:34;12.75;;;3.17;;
69822;SDS011;57119;52.516;13.508;2023-02-12T08:04:02;13.07;;;3.25;;
69822;SDS011;57119;52.516;13.508;2023-02-12T08:06:30;17.03;;;2.90;;
69822;SDS011;57119;52.516;13.508;2023-02-12T08:08:58;19.88;;;3.60;;
69822;SDS011;57119;52.516;13.508;2023-02-12T08:11:25;18.38;;;4.15;;
69822;SDS011;57119;52.516;13.508;2023-02-12T08:13:52;15.38;;;3.05;;
69822;SDS011;57119;52.516;13.508;2023-02-12T08:16:19;14.85;;;3.10;;
69822;SDS011;57119;52.516;13.508;2023-02-12T08:18:47;14.63;;;3.67;;
69822;SDS011;57119;52.516;13.508;2023-02-12T08:21:17;16.00;;;3.78;;
69822;SDS011;57119;52.516;13.508;2023-02-12T08:23:44;15.20;;;2.97;;
69822;SDS011;57119;52.516;13.508;2023-02-12T08:26:14;17.23;;;3.00;;
69822;SDS011;57119;52.516;13.508;2023-02-12T08:28:45;15.57;;;2.88;;
69822;SDS011;57119;52.516;13.508;2023-02-12T08:31:21;14.80;;;2.90;;
69822;SDS011;57119;52.516;13.508;2023-02-12T08:33:48;16.00;;;3.08;;
69822;SDS011;57119;52.516;13.508;2023-02-12T08:36:16;14.40;;;2.50;;
69822;SDS011;57119;52.516;13.508;2023-02-12T08:38:44;20.17;;;3.03;;
69822;SDS011;57119;52.516;13.508;2023-02-12T08:41:11;15.45;;;2.30;;
69822;SDS011;57119;52.516;13.508;2023-02-12T08:43:38;18.80;;;2.67;;
69822;SDS011;57119;52.516;13.508;2023-02-12T08:46:05;23.85;;;6.82;;
69822;SDS011;57119;52.516;13.508;2023-02-12T08:48:32;18.80;;;5.18;;
69822;SDS011;57119;52.516;13.508;2023-02-12T08:51:15;20.15;;;3.47;;
69822;SDS011;57119;52.516;13.508;2023-02-12T08:53:46;13.93;;;3.40;;
69822;SDS011;57119;52.516;13.508;2023-02-12T08:56:15;11.30;;;2.90;;
69822;SDS011;57119;52.516;13.508;2023-02-12T08:58:42;19.60;;;3.42;;
69822;SDS011;57119;52.516;13.508;2023-02-12T09:01:08;18.17;;;3.60;;
69822;SDS011;57119;52.516;13.508;2023-02-12T09:03:36;15.27;;;3.90;;
69822;SDS011;57119;52.516;13.508;2023-02-12T09:06:02;10.48;;;2.63;;
69822;SDS011;57119;52.516;13.508;2023-02-12T09:08:28;13.73;;;3.27;;
69822;SDS011;57119;52.516;13.508;2023-02-12T09:10:54;17.92;;;2.80;;
69822;SDS011;57119;52.516;13.508;2023-02-12T09:13:19;18.00;;;3.73;;
69822;SDS011;57119;52.516;13.508;2023-02-12T09:15:44;13.70;;;2.72;;
69822;SDS011;57119;52.516;13.508;2023-02-12T09:18:11;14.00;;;2.63;;
69822;SDS011;57119;52.516;13.508;2023-02-12T09:20:37;13.75;;;3.10;;
69822;SDS011;57119;52.516;13.508;2023-02-12T09:23:09;19.20;;;3.40;;
69822;SDS011;57119;52.516;13.508;2023-02-12T09:25:39;13.07;;;2.90;;
69822;SDS011;57119;52.516;13.508;2023-02-12T09:28:06;12.93;;;2.75;;
69822;SDS011;57119;52.516;13.508;2023-02-12T09:30:31;14.23;;;3.60;;
69822;SDS011;57119;52.516;13.508;2023-02-12T09:32:56;13.00;;;3.10;;
69822;SDS011;57119;52.516;13.508;2023-02-12T09:35:22;12.33;;;3.67;;
69822;SDS011;57119;52.516;13.508;2023-02-12T09:37:48;13.63;;;3.73;;
69822;SDS011;57119;52.516;13.508;2023-02-12T09:40:21;17.98;;;3.78;;
69822;SDS011;57119;52.516;13.508;2023-02-12T09:45:59;17.80;;;3.80;;
69822;SDS011;57119;52.516;13.508;2023-02-12T09:51:35;16.55;;;3.65;;
69822;SDS011;57119;52.516;13.508;2023-02-12T09:54:13;14.75;;;3.40;;
69822;SDS011;57119;52.516;13.508;2023-02-12T09:56:42;13.50;;;3.53;;
69822;SDS011;57119;52.516;13.508;2023-02-12T09:59:10;15.30;;;2.80;;
69822;SDS011;57119;52.516;13.508;2023-02-12T10:01:40;15.40;;;3.63;;
69822;SDS011;57119;52.516;13.508;2023-02-12T10:04:06;11.53;;;2.60;;
69822;SDS011;57119;52.516;13.508;2023-02-12T10:06:41;13.50;;;3.07;;
69822;SDS011;57119;52.516;13.508;2023-02-12T10:12:07;13.63;;;3.45;;
69822;SDS011;57119;52.516;13.508;2023-02-12T10:22:53;12.35;;;2.95;;
69822;SDS011;57119;52.516;13.508;2023-02-12T10:25:44;15.20;;;3.80;;
69822;SDS011;57119;52.516;13.508;2023-02-12T10:28:30;15.80;;;4.68;;
69822;SDS011;57119;52.516;13.508;2023-02-12T10:31:03;15.77;;;3.28;;
69822;SDS011;57119;52.516;13.508;2023-02-12T10:33:39;14.50;;;3.55;;
69822;SDS011;57119;52.516;13.508;2023-02-12T10:38:56;19.10;;;3.87;;
69822;SDS011;57119;52.516;13.508;2023-02-12T10:41:26;17.88;;;4.30;;
69822;SDS011;57119;52.516;13.508;2023-02-12T10:43:54;11.18;;;3.70;;
69822;SDS011;57119;52.516;13.508;2023-02-12T10:46:20;11.25;;;3.92;;
69822;SDS011;57119;52.516;13.508;2023-02-12T10:48:46;14.10;;;3.33;;
69822;SDS011;57119;52.516;13.508;2023-02-12T10:54:30;14.88;;;4.38;;
69822;SDS011;57119;52.516;13.508;2023-02-12T10:59:48;12.95;;;4.63;;
69822;SDS011;57119;52.516;13.508;2023-02-12T11:04:43;9.02;;;3.47;;
69822;SDS011;57119;52.516;13.508;2023-02-12T11:07:08;11.07;;;3.70;;
69822;SDS011;57119;52.516;13.508;2023-02-12T11:09:35;14.97;;;4.20;;
69822;SDS011;57119;52.516;13.508;2023-02-12T11:14:59;11.73;;;3.42;;
69822;SDS011;57119;52.516;13.508;2023-02-12T11:25:33;15.15;;;5.03;;
69822;SDS011;57119;52.516;13.508;2023-02-12T11:28:17;13.10;;;5.25;;
69822;SDS011;57119;52.516;13.508;2023-02-12T11:33:26;13.60;;;5.28;;
69822;SDS011;57119;52.516;13.508;2023-02-12T11:36:17;16.07;;;5.27;;
69822;SDS011;57119;52.516;13.508;2023-02-12T11:38:49;12.10;;;4.78;;
69822;SDS011;57119;52.516;13.508;2023-02-12T11:44:00;16.45;;;5.65;;
69822;SDS011;57119;52.516;13.508;2023-02-12T11:46:32;12.27;;;5.07;;
69822;SDS011;57119;52.516;13.508;2023-02-12T11:48:58;13.07;;;4.87;;
69822;SDS011;57119;52.516;13.508;2023-02-12T11:51:26;13.43;;;4.97;;
69822;SDS011;57119;52.516;13.508;2023-02-12T11:53:54;13.40;;;4.57;;
69822;SDS011;57119;52.516;13.508;2023-02-12T11:56:22;12.43;;;3.83;;
69822;SDS011;57119;52.516;13.508;2023-02-12T11:58:48;8.13;;;3.73;;
69822;SDS011;57119;52.516;13.508;2023-02-12T12:01:17;11.10;;;4.30;;
69822;SDS011;57119;52.516;13.508;2023-02-12T12:03:57;13.33;;;4.37;;
69822;SDS011;57119;52.516;13.508;2023-02-12T12:06:49;15.63;;;4.00;;
69822;SDS011;57119;52.516;13.508;2023-02-12T12:14:35;12.85;;;3.92;;
69822;SDS011;57119;52.516;13.508;2023-02-12T12:17:26;12.63;;;3.30;;
69822;SDS011;57119;52.516;13.508;2023-02-12T12:20:24;11.20;;;3.15;;
69822;SDS011;57119;52.516;13.508;2023-02-12T12:22:53;9.82;;;2.88;;
69822;SDS011;57119;52.516;13.508;2023-02-12T12:26:09;9.02;;;3.00;;
69822;SDS011;57119;52.516;13.508;2023-02-12T12:42:04;8.68;;;3.20;;
69822;SDS011;57119;52.516;13.508;2023-02-12T13:03:41;9.25;;;3.00;;
69822;SDS011;57119;52.516;13.508;2023-02-12T13:09:32;8.63;;;3.05;;
69822;SDS011;57119;52.516;13.508;2023-02-12T13:17:48;10.65;;;3.10;;
69822;SDS011;57119;52.516;13.508;2023-02-12T13:23:35;8.80;;;2.80;;
69822;SDS011;57119;52.516;13.508;2023-02-12T13:28:24;10.50;;;3.10;;
69822;SDS011;57119;52.516;13.508;2023-02-12T13:30:57;10.50;;;3.20;;
69822;SDS011;57119;52.516;13.508;2023-02-12T13:33:29;9.40;;;3.40;;
69822;SDS011;57119;52.516;13.508;2023-02-12T13:36:14;12.75;;;3.97;;
69822;SDS011;57119;52.516;13.508;2023-02-12T13:38:45;10.27;;;3.47;;
69822;SDS011;57119;52.516;13.508;2023-02-12T13:41:15;9.13;;;3.22;;
69822;SDS011;57119;52.516;13.508;2023-02-12T13:52:12;8.38;;;3.08;;
69822;SDS011;57119;52.516;13.508;2023-02-12T13:57:48;8.20;;;3.30;;
69822;SDS011;57119;52.516;13.508;2023-02-12T14:03:15;8.47;;;3.57;;
69822;SDS011;57119;52.516;13.508;2023-02-12T14:05:40;9.40;;;2.83;;
69822;SDS011;57119;52.516;13.508;2023-02-12T14:08:06;9.90;;;3.00;;
69822;SDS011;57119;52.516;13.508;2023-02-12T14:10:40;8.05;;;2.78;;
69822;SDS011;57119;52.516;13.508;2023-02-12T14:15:39;9.88;;;3.08;;
69822;SDS011;57119;52.516;13.508;2023-02-12T14:23:53;8.07;;;2.75;;
69822;SDS011;57119;52.516;13.508;2023-02-12T14:26:19;9.97;;;2.77;;
69822;SDS011;57119;52.516;13.508;2023-02-12T14:28:51;8.60;;;2.95;;
69822;SDS011;57119;52.516;13.508;2023-02-12T14:38:59;8.70;;;2.75;;
69822;SDS011;57119;52.516;13.508;2023-02-12T14:49:38;7.30;;;2.10;;
69822;SDS011;57119;52.516;13.508;2023-02-12T14:52:15;8.55;;;2.50;;
69822;SDS011;57119;52.516;13.508;2023-02-12T14:54:55;8.40;;;2.95;;
69822;SDS011;57119;52.516;13.508;2023-02-12T14:57:31;8.82;;;2.78;;
69822;SDS011;57119;52.516;13.508;2023-02-12T15:00:03;10.95;;;2.42;;
69822;SDS011;57119;52.516;13.508;2023-02-12T15:02:40;8.13;;;2.50;;
69822;SDS011;57119;52.516;13.508;2023-02-12T15:06:18;9.45;;;2.85;;
69822;SDS011;57119;52.516;13.508;2023-02-12T15:11:03;10.07;;;3.38;;
69822;SDS011;57119;52.516;13.508;2023-02-12T15:19:04;9.02;;;2.97;;
69822;SDS011;57119;52.516;13.508;2023-02-12T15:21:40;7.65;;;3.45;;
69822;SDS011;57119;52.516;13.508;2023-02-12T15:26:38;10.63;;;3.60;;
69822;SDS011;57119;52.516;13.508;2023-02-12T15:29:05;8.57;;;3.50;;
69822;SDS011;57119;52.516;13.508;2023-02-12T15:31:32;9.45;;;3.60;;
69822;SDS011;57119;52.516;13.508;2023-02-12T15:33:59;9.90;;;3.23;;
69822;SDS011;57119;52.516;13.508;2023-02-12T15:36:28;10.48;;;3.22;;
69822;SDS011;57119;52.516;13.508;2023-02-12T15:38:59;8.77;;;2.95;;
69822;SDS011;57119;52.516;13.508;2023-02-12T15:43:53;9.50;;;3.17;;
69822;SDS011;57119;52.516;13.508;2023-02-12T15:46:19;12.53;;;3.73;;
69822;SDS011;57119;52.516;13.508;2023-02-12T15:48:45;9.98;;;3.33;;
69822;SDS011;57119;52.516;13.508;2023-02-12T15:53:58;10.63;;;3.50;;
69822;SDS011;57119;52.516;13.508;2023-02-12T15:56:25;10.37;;;3.90;;
69822;SDS011;57119;52.516;13.508;2023-02-12T15:58:52;11.90;;;3.40;;
69822;SDS011;57119;52.516;13.508;2023-02-12T16:03:55;10.85;;;3.38;;
69822;SDS011;57119;52.516;13.508;2023-02-12T16:06:24;10.40;;;3.28;;
69822;SDS011;57119;52.516;13.508;2023-02-12T16:08:57;10.23;;;3.47;;
69822;SDS011;57119;52.516;13.508;2023-02-12T16:11:27;9.65;;;3.10;;
69822;SDS011;57119;52.516;13.508;2023-02-12T16:13:57;10.48;;;3.60;;
69822;SDS011;57119;52.516;13.508;2023-02-12T16:16:26;10.13;;;3.55;;
69822;SDS011;57119;52.516;13.508;2023-02-12T16:22:00;10.43;;;3.67;;
69822;SDS011;57119;52.516;13.508;2023-02-12T16:24:31;9.77;;;2.65;;
69822;SDS011;57119;52.516;13.508;2023-02-12T16:27:41;10.55;;;3.08;;
69822;SDS011;57119;52.516;13.508;2023-02-12T16:29:49;20.00;;;8.10;;
69822;SDS011;57119;52.516;13.508;2023-02-12T16:32:33;6.97;;;2.60;;
69822;SDS011;57119;52.516;13.508;2023-02-12T16:42:36;8.13;;;2.47;;
69822;SDS011;57119;52.516;13.508;2023-02-12T16:50:32;7.63;;;2.45;;
69822;SDS011;57119;52.516;13.508;2023-02-12T16:53:04;7.20;;;2.63;;
69822;SDS011;57119;52.516;13.508;2023-02-12T16:55:32;10.23;;;3.00;;
69822;SDS011;57119;52.516;13.508;2023-02-12T16:57:58;6.97;;;2.10;;
69822;SDS011;57119;52.516;13.508;2023-02-12T17:00:24;6.43;;;2.60;;
69822;SDS011;57119;52.516;13.508;2023-02-12T17:02:50;6.87;;;2.00;;
69822;SDS011;57119;52.516;13.508;2023-02-12T17:05:19;9.07;;;2.28;;
69822;SDS011;57119;52.516;13.508;2023-02-12T17:07:47;8.98;;;3.17;;
69822;SDS011;57119;52.516;13.508;2023-02-12T17:10:13;6.20;;;1.92;;
69822;SDS011;57119;52.516;13.508;2023-02-12T17:12:46;6.63;;;2.05;;
69822;SDS011;57119;52.516;13.508;2023-02-12T17:15:37;9.27;;;2.57;;
69822;SDS011;57119;52.516;13.508;2023-02-12T17:18:03;7.50;;;2.80;;
69822;SDS011;57119;52.516;13.508;2023-02-12T17:20:29;7.80;;;3.10;;
69822;SDS011;57119;52.516;13.508;2023-02-12T17:22:54;8.90;;;2.97;;
69822;SDS011;57119;52.516;13.508;2023-02-12T17:25:23;7.60;;;2.27;;
69822;SDS011;57119;52.516;13.508;2023-02-12T17:27:49;8.68;;;2.42;;
69822;SDS011;57119;52.516;13.508;2023-02-12T17:30:15;7.63;;;2.70;;
69822;SDS011;57119;52.516;13.508;2023-02-12T17:32:42;7.15;;;2.60;;
69822;SDS011;57119;52.516;13.508;2023-02-12T17:35:08;8.55;;;3.60;;
69822;SDS011;57119;52.516;13.508;2023-02-12T17:37:34;9.67;;;3.83;;
69822;SDS011;57119;52.516;13.508;2023-02-12T17:39:59;10.98;;;4.22;;
69822;SDS011;57119;52.516;13.508;2023-02-12T17:42:25;8.50;;;3.70;;
69822;SDS011;57119;52.516;13.508;2023-02-12T17:44:51;12.57;;;4.40;;
69822;SDS011;57119;52.516;13.508;2023-02-12T17:47:16;21.73;;;8.33;;
69822;SDS011;57119;52.516;13.508;2023-02-12T17:49:42;45.80;;;20.70;;
69822;SDS011;57119;52.516;13.508;2023-02-12T17:52:07;10.88;;;3.25;;
69822;SDS011;57119;52.516;13.508;2023-02-12T17:54:33;8.60;;;2.90;;
69822;SDS011;57119;52.516;13.508;2023-02-12T17:56:58;10.70;;;2.77;;
69822;SDS011;57119;52.516;13.508;2023-02-12T17:59:23;8.80;;;3.13;;
69822;SDS011;57119;52.516;13.508;2023-02-12T18:01:49;12.70;;;2.87;;
69822;SDS011;57119;52.516;13.508;2023-02-12T18:04:14;9.50;;;2.43;;
69822;SDS011;57119;52.516;13.508;2023-02-12T18:06:40;9.00;;;2.37;;
69822;SDS011;57119;52.516;13.508;2023-02-12T18:09:05;8.50;;;2.30;;
69822;SDS011;57119;52.516;13.508;2023-02-12T18:11:31;11.10;;;4.20;;